Terminal Aerodrome Forecast
Issued by NWS

Home | Current Version | Previous Version | Text Only | Print | Product List | Glossary Off
Versions: 1 2 3 4 5 6 7 8 9 10 11 12 13 14

000
FTUS43 KMPX 252324
TAFRWF
TAF
KRWF 252324Z 2600/2624 31013G18KT P6SM OVC035
     FM260200 31012KT P6SM SCT040
     FM260600 31010KT P6SM SKC
     FM261700 32012G20KT P6SM SCT050=

USA.gov is the U.S. government's official web portal to all federal, state and local government web resources and services.